SAS435 EKCH-ENBR
Flight info
| Callsign | SAS435 |
|---|---|
| Flight time | N/A |
| Altitude | 36000 |
| Route | GOLGA DCT BADAB |
| Aircraft | A320/M-SDE3FGHIRWY/LB1 |
Departure
| Time | 2026-05-07 17:04 |
|---|---|
| Airport | Copenhagen Kastrup Airport (EKCH) |
Arrival
| Time | N/A |
|---|---|
| Airport | Bergen Airport, Flesland (ENBR) |
| Time | Latitude | Longitude | Altitude | Speed | Heading |
|---|---|---|---|---|---|
| 2026-05-07 16:46 | 55.62511 | 12.65040 | 20 ft | 0 kts | 278° |
| 2026-05-07 16:53 | 55.62508 | 12.65073 | 20 ft | 4 kts | 276° |
| 2026-05-07 16:53 | 55.62506 | 12.65121 | 20 ft | 4 kts | 269° |
| 2026-05-07 16:53 | 55.62509 | 12.65168 | 20 ft | 4 kts | 253° |
| 2026-05-07 16:53 | 55.62511 | 12.65183 | 20 ft | 0 kts | 249° |
| 2026-05-07 16:57 | 55.62511 | 12.65182 | 20 ft | 0 kts | 245° |
| 2026-05-07 16:57 | 55.62502 | 12.65181 | 24 ft | 4 kts | 188° |
| 2026-05-07 16:57 | 55.62455 | 12.65185 | 20 ft | 8 kts | 177° |
| 2026-05-07 16:57 | 55.62396 | 12.65191 | 21 ft | 9 kts | 177° |
| 2026-05-07 16:58 | 55.62325 | 12.65198 | 21 ft | 11 kts | 177° |
| 2026-05-07 16:58 | 55.62243 | 12.65198 | 23 ft | 13 kts | 187° |
| 2026-05-07 16:58 | 55.62165 | 12.65131 | 24 ft | 13 kts | 213° |
| 2026-05-07 16:58 | 55.62109 | 12.65067 | 23 ft | 0 kts | 213° |
| 2026-05-07 16:59 | 55.62109 | 12.65066 | 23 ft | 1 kts | 213° |
| 2026-05-07 16:59 | 55.62096 | 12.65052 | 25 ft | 6 kts | 213° |
| 2026-05-07 16:59 | 55.62038 | 12.64985 | 23 ft | 12 kts | 213° |
| 2026-05-07 16:59 | 55.61953 | 12.64886 | 18 ft | 17 kts | 213° |
| 2026-05-07 17:00 | 55.61846 | 12.64766 | 20 ft | 20 kts | 212° |
| 2026-05-07 17:00 | 55.61744 | 12.64647 | 20 ft | 17 kts | 213° |
| 2026-05-07 17:00 | 55.61633 | 12.64519 | 21 ft | 20 kts | 213° |
| 2026-05-07 17:00 | 55.61503 | 12.64372 | 19 ft | 23 kts | 212° |
| 2026-05-07 17:01 | 55.61353 | 12.64199 | 16 ft | 27 kts | 213° |
| 2026-05-07 17:01 | 55.61212 | 12.64034 | 16 ft | 23 kts | 214° |
| 2026-05-07 17:01 | 55.61077 | 12.63878 | 20 ft | 24 kts | 213° |
| 2026-05-07 17:01 | 55.60966 | 12.63751 | 21 ft | 15 kts | 213° |
| 2026-05-07 17:02 | 55.60869 | 12.63641 | 21 ft | 18 kts | 213° |
| 2026-05-07 17:02 | 55.60756 | 12.63650 | 24 ft | 17 kts | 140° |
| 2026-05-07 17:02 | 55.60690 | 12.63824 | 26 ft | 13 kts | 100° |
| 2026-05-07 17:02 | 55.60716 | 12.63936 | 26 ft | 3 kts | 40° |
| 2026-05-07 17:03 | 55.60719 | 12.63941 | 30 ft | 0 kts | 40° |
| 2026-05-07 17:03 | 55.60725 | 12.63949 | 29 ft | 4 kts | 41° |
| 2026-05-07 17:03 | 55.60920 | 12.64249 | 24 ft | 74 kts | 41° |
| 2026-05-07 17:04 | 55.61457 | 12.65078 | 20 ft | 128 kts | 40° |
| 2026-05-07 17:04 | 55.62214 | 12.66272 | 239 ft | 151 kts | 41° |
| 2026-05-07 17:04 | 55.63024 | 12.67584 | 715 ft | 168 kts | 40° |
| 2026-05-07 17:04 | 55.63968 | 12.69038 | 1074 ft | 191 kts | 39° |
| 2026-05-07 17:05 | 55.65213 | 12.70140 | 1379 ft | 215 kts | 6° |
| 2026-05-07 17:05 | 55.66725 | 12.69592 | 1803 ft | 238 kts | 329° |
| 2026-05-07 17:05 | 55.68057 | 12.67815 | 2605 ft | 246 kts | 321° |
| 2026-05-07 17:05 | 55.69386 | 12.65853 | 3584 ft | 250 kts | 320° |
| 2026-05-07 17:06 | 55.70718 | 12.63847 | 4577 ft | 253 kts | 320° |
| 2026-05-07 17:06 | 55.72069 | 12.61810 | 5534 ft | 257 kts | 320° |
| 2026-05-07 17:06 | 55.73453 | 12.59739 | 6429 ft | 263 kts | 321° |
| 2026-05-07 17:06 | 55.74865 | 12.57641 | 7304 ft | 267 kts | 322° |
| 2026-05-07 17:07 | 55.76306 | 12.55505 | 8139 ft | 273 kts | 322° |
| 2026-05-07 17:07 | 55.77779 | 12.53322 | 8976 ft | 279 kts | 321° |
| 2026-05-07 17:07 | 55.79283 | 12.51089 | 9817 ft | 284 kts | 321° |
| 2026-05-07 17:07 | 55.80826 | 12.48804 | 10408 ft | 298 kts | 321° |
| 2026-05-07 17:08 | 55.82485 | 12.46353 | 10637 ft | 321 kts | 321° |
| 2026-05-07 17:08 | 55.84292 | 12.43674 | 10809 ft | 345 kts | 321° |
| 2026-05-07 17:08 | 55.86156 | 12.40902 | 11155 ft | 360 kts | 321° |
| 2026-05-07 17:08 | 55.88090 | 12.38016 | 11813 ft | 365 kts | 321° |
| 2026-05-07 17:09 | 55.90039 | 12.35097 | 12509 ft | 368 kts | 320° |
| 2026-05-07 17:09 | 55.92008 | 12.32144 | 13206 ft | 371 kts | 320° |
| 2026-05-07 17:09 | 55.93992 | 12.29171 | 13908 ft | 374 kts | 320° |
| 2026-05-07 17:09 | 55.95996 | 12.26170 | 14553 ft | 377 kts | 319° |
| 2026-05-07 17:10 | 55.98008 | 12.23154 | 15202 ft | 379 kts | 319° |
| 2026-05-07 17:10 | 56.00039 | 12.20109 | 15793 ft | 383 kts | 319° |
| 2026-05-07 17:10 | 56.02087 | 12.17033 | 16405 ft | 386 kts | 319° |
| 2026-05-07 17:10 | 56.04150 | 12.13927 | 17031 ft | 390 kts | 319° |
| 2026-05-07 17:11 | 56.06236 | 12.10780 | 17678 ft | 393 kts | 319° |
| 2026-05-07 17:11 | 56.08360 | 12.07567 | 18334 ft | 396 kts | 319° |
| 2026-05-07 17:11 | 56.10473 | 12.04370 | 18895 ft | 399 kts | 319° |
| 2026-05-07 17:11 | 56.12608 | 12.01140 | 19448 ft | 403 kts | 319° |
| 2026-05-07 17:12 | 56.14755 | 11.97884 | 19992 ft | 406 kts | 319° |
| 2026-05-07 17:12 | 56.16942 | 11.94558 | 20536 ft | 409 kts | 319° |
| 2026-05-07 17:12 | 56.19116 | 11.91245 | 21044 ft | 411 kts | 319° |
| 2026-05-07 17:12 | 56.21305 | 11.87902 | 21533 ft | 414 kts | 319° |
| 2026-05-07 17:13 | 56.23508 | 11.84536 | 22003 ft | 417 kts | 319° |
| 2026-05-07 17:13 | 56.25720 | 11.81153 | 22443 ft | 419 kts | 319° |
| 2026-05-07 17:13 | 56.27949 | 11.77741 | 22892 ft | 422 kts | 319° |
| 2026-05-07 17:13 | 56.30188 | 11.74304 | 23330 ft | 424 kts | 319° |
| 2026-05-07 17:14 | 56.32440 | 11.70845 | 23742 ft | 427 kts | 319° |
| 2026-05-07 17:14 | 56.34598 | 11.67158 | 24082 ft | 428 kts | 314° |
| 2026-05-07 17:14 | 56.36697 | 11.63294 | 24424 ft | 431 kts | 314° |
| 2026-05-07 17:14 | 56.38787 | 11.59439 | 24763 ft | 433 kts | 314° |
| 2026-05-07 17:15 | 56.40896 | 11.55537 | 25105 ft | 435 kts | 314° |
| 2026-05-07 17:15 | 56.43015 | 11.51617 | 25453 ft | 436 kts | 314° |
| 2026-05-07 17:15 | 56.45140 | 11.47683 | 25801 ft | 438 kts | 314° |
| 2026-05-07 17:15 | 56.47276 | 11.43728 | 26127 ft | 441 kts | 314° |
| 2026-05-07 17:16 | 56.49422 | 11.39749 | 26469 ft | 443 kts | 314° |
| 2026-05-07 17:16 | 56.51574 | 11.35747 | 26776 ft | 445 kts | 314° |
| 2026-05-07 17:16 | 56.53734 | 11.31716 | 27090 ft | 447 kts | 314° |
| 2026-05-07 17:16 | 56.55898 | 11.27661 | 27396 ft | 449 kts | 314° |
| 2026-05-07 17:17 | 56.58073 | 11.23580 | 27744 ft | 449 kts | 314° |
| 2026-05-07 17:17 | 56.60246 | 11.19501 | 28183 ft | 448 kts | 314° |
| 2026-05-07 17:17 | 56.62411 | 11.15438 | 28672 ft | 446 kts | 313° |
| 2026-05-07 17:17 | 56.63836 | 11.12759 | 29003 ft | 445 kts | 313° |
| 2026-05-07 17:18 | 56.66009 | 11.08668 | 29487 ft | 443 kts | 313° |
| 2026-05-07 17:18 | 56.68146 | 11.04637 | 29968 ft | 442 kts | 313° |
| 2026-05-07 17:18 | 56.70276 | 11.00613 | 30404 ft | 441 kts | 313° |
| 2026-05-07 17:18 | 56.72403 | 10.96587 | 30804 ft | 440 kts | 313° |
| 2026-05-07 17:19 | 56.74520 | 10.92566 | 31219 ft | 439 kts | 313° |
| 2026-05-07 17:19 | 56.76625 | 10.88555 | 31633 ft | 438 kts | 313° |
| 2026-05-07 17:19 | 56.78728 | 10.84544 | 32049 ft | 436 kts | 313° |
| 2026-05-07 17:19 | 56.80822 | 10.80553 | 32471 ft | 435 kts | 313° |
| 2026-05-07 17:20 | 56.82915 | 10.76560 | 32897 ft | 434 kts | 313° |
| 2026-05-07 17:20 | 56.84994 | 10.72580 | 33322 ft | 433 kts | 313° |
| 2026-05-07 17:20 | 56.87069 | 10.68595 | 33751 ft | 432 kts | 313° |
| 2026-05-07 17:20 | 56.89138 | 10.64616 | 34174 ft | 431 kts | 313° |
| 2026-05-07 17:21 | 56.91203 | 10.60644 | 34528 ft | 430 kts | 313° |
| 2026-05-07 17:21 | 56.93266 | 10.56671 | 34851 ft | 431 kts | 313° |
| 2026-05-07 17:21 | 56.95356 | 10.52641 | 35221 ft | 430 kts | 313° |
| 2026-05-07 17:21 | 56.97414 | 10.48670 | 35554 ft | 429 kts | 313° |
| 2026-05-07 17:22 | 56.99469 | 10.44701 | 35870 ft | 429 kts | 312° |
| 2026-05-07 17:22 | 57.01494 | 10.40780 | 36161 ft | 429 kts | 312° |
| 2026-05-07 17:22 | 57.03548 | 10.36791 | 36452 ft | 429 kts | 312° |
| 2026-05-07 17:22 | 57.05597 | 10.32797 | 36736 ft | 430 kts | 312° |
| 2026-05-07 17:23 | 57.07672 | 10.28736 | 37026 ft | 430 kts | 311° |
| 2026-05-07 17:23 | 57.09716 | 10.24731 | 37297 ft | 430 kts | 311° |
| 2026-05-07 17:23 | 57.11765 | 10.20721 | 37563 ft | 430 kts | 311° |
| 2026-05-07 17:23 | 57.13814 | 10.16703 | 37826 ft | 430 kts | 311° |
| 2026-05-07 17:24 | 57.15864 | 10.12676 | 38087 ft | 431 kts | 311° |
| 2026-05-07 17:24 | 57.17915 | 10.08643 | 38349 ft | 431 kts | 311° |
| 2026-05-07 17:24 | 57.19962 | 10.04610 | 38604 ft | 431 kts | 311° |
| 2026-05-07 17:24 | 57.22006 | 10.00573 | 38832 ft | 431 kts | 311° |
| 2026-05-07 17:25 | 57.24051 | 9.96528 | 39015 ft | 431 kts | 311° |
| 2026-05-07 17:25 | 57.26096 | 9.92474 | 39121 ft | 432 kts | 311° |
| 2026-05-07 17:25 | 57.30191 | 9.84341 | 39135 ft | 432 kts | 310° |
| 2026-05-07 17:26 | 57.34311 | 9.76145 | 39131 ft | 432 kts | 310° |
| 2026-05-07 17:26 | 57.38387 | 9.67980 | 39130 ft | 432 kts | 310° |
| 2026-05-07 17:27 | 57.40424 | 9.63887 | 38999 ft | 431 kts | 310° |
| 2026-05-07 17:27 | 57.42457 | 9.59799 | 38435 ft | 430 kts | 310° |
| 2026-05-07 17:27 | 57.44488 | 9.55710 | 37763 ft | 431 kts | 310° |
| 2026-05-07 17:27 | 57.46516 | 9.51616 | 37137 ft | 430 kts | 310° |
| 2026-05-07 17:28 | 57.48541 | 9.47522 | 36509 ft | 430 kts | 311° |
| 2026-05-07 17:28 | 57.50558 | 9.43438 | 36174 ft | 427 kts | 311° |